Time;durP1;ratioP1;P1;durP2;ratioP2;P2;SDS_P1;SDS_P2;PMS_P1;PMS_P2;Temp;Humidity;BMP_temperature;BMP_pressure;BME280_temperature;BME280_humidity;BME280_pressure;Samples;Min_cycle;Max_cycle;Signal;HPM_P1;HPM_P2
2023/07/21 00:00:56;;;;;;;6.00;2.00;;;;;;;;;;5069674;28;20024;-74
2023/07/21 00:03:22;;;;;;;6.13;1.90;;;;;;;;;;5073316;28;20036;-74
2023/07/21 00:05:48;;;;;;;4.68;1.85;;;;;;;;;;5070559;28;20025;-75
2023/07/21 00:08:14;;;;;;;5.20;1.85;;;;;;;;;;5070865;28;20028;-74
2023/07/21 00:10:40;;;;;;;5.97;1.80;;;;;;;;;;5074009;28;20111;-74
2023/07/21 00:13:06;;;;;;;6.60;2.05;;;;;;;;;;5074073;28;20063;-75
2023/07/21 00:15:33;;;;;;;6.10;1.92;;;;;;;;;;5074432;28;20021;-75
2023/07/21 00:17:59;;;;;;;6.65;2.28;;;;;;;;;;5074299;28;20518;-73
2023/07/21 00:20:25;;;;;;;9.77;2.22;;;;;;;;;;5074382;28;20103;-75
2023/07/21 00:22:52;;;;;;;9.13;2.20;;;;;;;;;;5073999;28;20021;-75
2023/07/21 00:25:18;;;;;;;6.78;2.25;;;;;;;;;;5074219;28;20021;-75
2023/07/21 00:27:44;;;;;;;7.60;1.80;;;;;;;;;;5074206;28;20471;-75
2023/07/21 00:30:10;;;;;;;6.45;1.95;;;;;;;;;;5074190;28;20021;-77
2023/07/21 00:32:37;;;;;;;8.60;2.55;;;;;;;;;;5073854;28;20017;-76
2023/07/21 00:35:05;;;;;;;6.35;1.92;;;;;;;;;;5074008;28;20451;-76
2023/07/21 00:37:31;;;;;;;6.68;2.20;;;;;;;;;;5074109;28;20359;-76
2023/07/21 00:39:57;;;;;;;9.77;2.30;;;;;;;;;;5073873;28;20020;-76
2023/07/21 00:42:23;;;;;;;6.97;2.10;;;;;;;;;;5073610;28;20024;-76
2023/07/21 00:44:49;;;;;;;7.72;2.15;;;;;;;;;;5073912;28;20548;-75
2023/07/21 00:47:15;;;;;;;6.00;1.70;;;;;;;;;;5073835;28;20099;-76
2023/07/21 00:49:41;;;;;;;6.65;2.00;;;;;;;;;;5077876;28;20032;-76
2023/07/21 00:52:09;;;;;;;5.90;2.20;;;;;;;;;;5079765;28;20059;-74
2023/07/21 00:54:35;;;;;;;5.25;1.65;;;;;;;;;;5078974;28;20024;-74
2023/07/21 00:57:01;;;;;;;5.97;2.20;;;;;;;;;;5078258;28;20029;-75
2023/07/21 00:59:27;;;;;;;8.95;2.50;;;;;;;;;;5078679;28;20028;-75
2023/07/21 01:01:53;;;;;;;5.55;2.05;;;;;;;;;;5074886;28;20028;-74
2023/07/21 01:04:20;;;;;;;4.30;2.25;;;;;;;;;;5073841;28;20467;-75
2023/07/21 01:12:53;;;;;;;8.52;2.05;;;;;;;;;;5072816;28;20426;-73
2023/07/21 01:15:19;;;;;;;10.80;2.28;;;;;;;;;;5073352;28;20025;-74
2023/07/21 01:17:46;;;;;;;5.03;2.05;;;;;;;;;;5073292;28;20029;-73
2023/07/21 01:20:15;;;;;;;7.05;2.15;;;;;;;;;;5072623;28;20158;-76
2023/07/21 01:22:45;;;;;;;7.38;2.28;;;;;;;;;;5072515;28;20024;-75
2023/07/21 01:25:12;;;;;;;5.60;2.30;;;;;;;;;;5073251;28;20096;-75
2023/07/21 01:27:39;;;;;;;5.55;2.22;;;;;;;;;;5073070;28;20131;-74
2023/07/21 01:30:07;;;;;;;6.05;2.30;;;;;;;;;;5073155;28;20031;-75
2023/07/21 01:32:36;;;;;;;7.35;2.50;;;;;;;;;;5072581;28;20394;-75
2023/07/21 01:35:03;;;;;;;5.80;2.20;;;;;;;;;;5072860;28;20051;-75
2023/07/21 01:37:30;;;;;;;7.78;2.35;;;;;;;;;;5072740;28;20052;-74
2023/07/21 01:39:56;;;;;;;7.25;2.00;;;;;;;;;;5072692;28;20103;-73
2023/07/21 01:42:29;;;;;;;9.45;2.17;;;;;;;;;;5072304;28;20086;-75
2023/07/21 01:44:56;;;;;;;7.75;1.92;;;;;;;;;;5072623;28;20393;-74
2023/07/21 01:47:24;;;;;;;3.67;1.92;;;;;;;;;;5072783;28;20100;-75
2023/07/21 01:49:51;;;;;;;7.80;2.30;;;;;;;;;;5072580;28;20060;-76
2023/07/21 01:52:17;;;;;;;6.95;2.10;;;;;;;;;;5073038;28;20031;-76
2023/07/21 01:54:48;;;;;;;6.63;2.05;;;;;;;;;;5073630;28;20035;-75
2023/07/21 01:57:18;;;;;;;7.70;2.00;;;;;;;;;;5072570;28;20118;-73
2023/07/21 01:59:46;;;;;;;9.48;2.65;;;;;;;;;;5072395;28;20375;-74
2023/07/21 02:02:12;;;;;;;6.43;2.25;;;;;;;;;;5071921;28;20394;-74
2023/07/21 02:04:38;;;;;;;7.57;2.50;;;;;;;;;;5072241;28;20021;-75
2023/07/21 02:07:05;;;;;;;4.63;1.85;;;;;;;;;;5072133;28;20600;-74
2023/07/21 02:09:31;;;;;;;6.28;1.73;;;;;;;;;;5073862;28;20021;-76
2023/07/21 02:11:58;;;;;;;4.15;2.22;;;;;;;;;;5073221;28;20036;-74
2023/07/21 02:14:24;;;;;;;6.15;2.60;;;;;;;;;;5072133;28;20029;-74
2023/07/21 02:16:50;;;;;;;5.93;2.30;;;;;;;;;;5072094;28;20121;-75
2023/07/21 02:19:17;;;;;;;5.72;2.28;;;;;;;;;;5072035;28;20042;-74
2023/07/21 02:21:43;;;;;;;7.70;2.28;;;;;;;;;;5071612;28;20047;-74
2023/07/21 02:24:09;;;;;;;5.60;2.05;;;;;;;;;;5071925;28;20055;-73
2023/07/21 02:26:35;;;;;;;7.88;2.55;;;;;;;;;;5071880;28;20377;-75
2023/07/21 02:29:01;;;;;;;8.73;2.40;;;;;;;;;;5072237;28;20024;-74
2023/07/21 02:31:27;;;;;;;5.72;2.55;;;;;;;;;;5073045;28;20108;-76
2023/07/21 02:33:53;;;;;;;6.85;3.13;;;;;;;;;;5073608;28;20486;-75
2023/07/21 02:36:19;;;;;;;7.40;2.70;;;;;;;;;;5074508;28;20074;-76
2023/07/21 02:38:45;;;;;;;16.10;4.95;;;;;;;;;;5075016;28;20024;-74
2023/07/21 02:41:11;;;;;;;7.10;3.40;;;;;;;;;;5074305;28;20065;-75
2023/07/21 02:43:38;;;;;;;6.20;2.40;;;;;;;;;;5073289;28;20016;-75
2023/07/21 02:46:04;;;;;;;6.32;2.53;;;;;;;;;;5072191;28;20028;-75
2023/07/21 02:48:30;;;;;;;6.70;2.58;;;;;;;;;;5071574;28;20020;-74
2023/07/21 02:50:56;;;;;;;5.88;2.70;;;;;;;;;;5071446;28;20024;-74
2023/07/21 02:53:23;;;;;;;7.85;2.60;;;;;;;;;;5071354;28;20608;-74
2023/07/21 02:55:49;;;;;;;5.88;2.35;;;;;;;;;;5071682;28;20025;-75
2023/07/21 02:58:16;;;;;;;8.45;2.35;;;;;;;;;;5071935;28;20025;-74
2023/07/21 03:00:42;;;;;;;7.38;2.47;;;;;;;;;;5071686;28;20078;-73
2023/07/21 03:03:12;;;;;;;6.07;2.40;;;;;;;;;;5071797;28;20029;-75
2023/07/21 03:05:38;;;;;;;5.70;2.50;;;;;;;;;;5072116;28;20017;-74
2023/07/21 03:08:04;;;;;;;9.25;2.30;;;;;;;;;;5071921;28;20021;-74
2023/07/21 03:10:30;;;;;;;7.45;2.53;;;;;;;;;;5072011;28;20527;-74
2023/07/21 03:12:57;;;;;;;11.90;2.72;;;;;;;;;;5072438;28;20036;-74
2023/07/21 03:15:23;;;;;;;9.90;3.20;;;;;;;;;;5069646;28;20017;-73
2023/07/21 03:17:49;;;;;;;7.13;2.47;;;;;;;;;;5072788;28;20039;-76
2023/07/21 03:20:15;;;;;;;7.72;1.90;;;;;;;;;;5078297;28;20050;-74
2023/07/21 03:22:44;;;;;;;7.10;2.25;;;;;;;;;;5086223;28;20098;-73
2023/07/21 03:25:11;;;;;;;4.32;2.10;;;;;;;;;;5089915;28;20016;-73
2023/07/21 03:27:39;;;;;;;7.88;2.75;;;;;;;;;;5078022;28;20025;-75
2023/07/21 03:30:06;;;;;;;10.25;2.85;;;;;;;;;;5071814;28;20029;-75
2023/07/21 03:32:32;;;;;;;9.50;3.28;;;;;;;;;;5070378;28;20063;-75
2023/07/21 03:35:01;;;;;;;13.52;3.08;;;;;;;;;;5070962;28;20032;-74
2023/07/21 03:37:27;;;;;;;8.55;2.40;;;;;;;;;;5071348;28;20031;-74
2023/07/21 03:39:53;;;;;;;6.20;2.65;;;;;;;;;;5071144;28;20028;-73
2023/07/21 03:42:19;;;;;;;7.78;2.83;;;;;;;;;;5070520;28;20043;-76
2023/07/21 03:44:48;;;;;;;6.43;2.47;;;;;;;;;;5073024;28;20016;-76
2023/07/21 03:47:17;;;;;;;6.30;2.78;;;;;;;;;;5075374;28;20082;-73
2023/07/21 03:49:44;;;;;;;9.27;3.20;;;;;;;;;;5074583;28;20013;-75
2023/07/21 03:52:10;;;;;;;5.75;2.83;;;;;;;;;;5074565;28;20028;-76
2023/07/21 03:54:36;;;;;;;8.63;2.17;;;;;;;;;;5075435;28;20032;-77
2023/07/21 03:57:02;;;;;;;6.72;2.33;;;;;;;;;;5074823;28;20032;-73
2023/07/21 03:59:29;;;;;;;8.10;2.88;;;;;;;;;;5074662;28;20493;-75
2023/07/21 04:01:55;;;;;;;8.13;2.50;;;;;;;;;;5074244;28;20123;-75
2023/07/21 04:04:21;;;;;;;7.45;2.85;;;;;;;;;;5075175;28;20027;-75
2023/07/21 04:06:48;;;;;;;8.18;3.40;;;;;;;;;;5074917;28;20103;-75
2023/07/21 04:09:14;;;;;;;12.23;3.95;;;;;;;;;;5075302;28;20031;-74
2023/07/21 04:11:40;;;;;;;7.55;2.53;;;;;;;;;;5074931;28;20093;-75
2023/07/21 04:14:06;;;;;;;6.15;2.90;;;;;;;;;;5075204;28;20050;-74
2023/07/21 04:16:32;;;;;;;9.38;2.97;;;;;;;;;;5074639;28;20163;-75
2023/07/21 04:18:58;;;;;;;5.20;2.40;;;;;;;;;;5074563;28;20437;-75
2023/07/21 04:21:25;;;;;;;6.40;2.85;;;;;;;;;;5074326;28;20029;-74
2023/07/21 04:23:51;;;;;;;7.55;1.95;;;;;;;;;;5074306;28;20021;-74
2023/07/21 04:26:17;;;;;;;6.50;2.22;;;;;;;;;;5074444;28;20471;-75
2023/07/21 04:28:47;;;;;;;10.60;2.55;;;;;;;;;;5073998;28;20092;-76
2023/07/21 04:31:13;;;;;;;8.68;3.03;;;;;;;;;;5074173;28;20285;-76
2023/07/21 04:33:40;;;;;;;25.35;7.35;;;;;;;;;;5073510;28;20086;-75
2023/07/21 04:36:07;;;;;;;20.80;4.63;;;;;;;;;;5074865;28;20099;-76
2023/07/21 04:38:34;;;;;;;24.88;3.53;;;;;;;;;;5074361;28;20021;-74
2023/07/21 04:41:00;;;;;;;29.95;3.53;;;;;;;;;;5074056;28;20040;-75
2023/07/21 04:43:26;;;;;;;18.05;3.20;;;;;;;;;;5074639;28;20030;-76
2023/07/21 04:45:54;;;;;;;19.17;3.00;;;;;;;;;;5074801;28;20025;-75
2023/07/21 04:48:20;;;;;;;52.42;4.55;;;;;;;;;;5074268;28;20095;-75
2023/07/21 04:50:51;;;;;;;47.65;4.93;;;;;;;;;;5076403;28;20017;-75
2023/07/21 04:53:17;;;;;;;38.70;4.57;;;;;;;;;;5074950;28;20020;-74
2023/07/21 04:55:43;;;;;;;28.08;3.78;;;;;;;;;;5074250;28;20108;-76
2023/07/21 04:58:09;;;;;;;13.50;3.20;;;;;;;;;;5073504;28;20033;-76
2023/07/21 05:00:35;;;;;;;8.63;2.45;;;;;;;;;;5073643;28;20537;-76
2023/07/21 05:03:01;;;;;;;14.25;2.80;;;;;;;;;;5073314;28;20021;-74
2023/07/21 05:05:28;;;;;;;10.80;2.80;;;;;;;;;;5073540;28;20023;-75
2023/07/21 05:07:54;;;;;;;12.57;3.20;;;;;;;;;;5073510;28;20032;-74
2023/07/21 05:10:20;;;;;;;11.30;3.25;;;;;;;;;;5073190;28;20089;-76
2023/07/21 05:12:46;;;;;;;9.65;2.50;;;;;;;;;;5072716;28;20111;-74
2023/07/21 05:15:13;;;;;;;17.60;3.78;;;;;;;;;;5073152;28;20754;-73
2023/07/21 05:17:40;;;;;;;13.40;3.00;;;;;;;;;;5073292;28;20031;-74
2023/07/21 05:20:07;;;;;;;6.65;2.58;;;;;;;;;;5073013;28;20359;-74
2023/07/21 05:22:33;;;;;;;6.50;2.13;;;;;;;;;;5072665;28;20044;-74
2023/07/21 05:24:59;;;;;;;8.15;2.35;;;;;;;;;;5073346;28;20024;-74
2023/07/21 05:27:25;;;;;;;6.90;2.80;;;;;;;;;;5073391;28;20082;-76
2023/07/21 05:29:51;;;;;;;8.90;2.33;;;;;;;;;;5078042;28;20035;-78
2023/07/21 05:32:17;;;;;;;7.20;2.03;;;;;;;;;;5071912;28;20363;-75
2023/07/21 05:34:43;;;;;;;7.47;1.88;;;;;;;;;;5072623;28;20039;-75
2023/07/21 05:37:11;;;;;;;11.15;2.38;;;;;;;;;;5071591;28;20125;-74
2023/07/21 05:39:39;;;;;;;6.95;1.92;;;;;;;;;;5079251;28;20037;-75
2023/07/21 05:42:06;;;;;;;9.85;1.95;;;;;;;;;;5073948;28;20024;-75
2023/07/21 05:44:33;;;;;;;9.32;2.08;;;;;;;;;;5072805;28;20079;-79
2023/07/21 05:46:59;;;;;;;6.65;1.85;;;;;;;;;;5073129;28;20031;-75
2023/07/21 05:49:26;;;;;;;8.13;2.30;;;;;;;;;;5072610;28;20533;-74
2023/07/21 05:51:52;;;;;;;9.73;3.25;;;;;;;;;;5066785;28;20423;-75
2023/07/21 05:54:18;;;;;;;6.05;1.90;;;;;;;;;;5072455;28;20032;-75
2023/07/21 05:56:45;;;;;;;7.28;1.92;;;;;;;;;;5072162;28;20029;-75
2023/07/21 05:59:11;;;;;;;3.30;1.38;;;;;;;;;;5072348;28;20066;-75
2023/07/21 06:01:37;;;;;;;7.35;1.98;;;;;;;;;;5072823;28;20035;-75
2023/07/21 06:04:05;;;;;;;6.53;2.47;;;;;;;;;;5071381;28;20056;-75
2023/07/21 06:06:31;;;;;;;11.73;2.47;;;;;;;;;;5070949;28;20066;-74
2023/07/21 06:08:57;;;;;;;9.85;2.30;;;;;;;;;;5072151;28;20025;-73
2023/07/21 06:11:24;;;;;;;6.22;1.73;;;;;;;;;;5071906;28;20035;-76
2023/07/21 06:13:50;;;;;;;8.05;2.45;;;;;;;;;;5072140;28;20033;-76
2023/07/21 06:16:16;;;;;;;7.00;2.03;;;;;;;;;;5074920;28;20153;-75
2023/07/21 06:18:43;;;;;;;7.20;1.92;;;;;;;;;;5079551;28;20036;-75
2023/07/21 06:21:11;;;;;;;4.88;1.50;;;;;;;;;;5072202;28;20482;-74
2023/07/21 06:23:38;;;;;;;7.40;1.98;;;;;;;;;;5071767;28;20466;-75
2023/07/21 06:26:04;;;;;;;3.50;1.80;;;;;;;;;;5072571;28;20020;-75
2023/07/21 06:28:30;;;;;;;8.40;1.83;;;;;;;;;;5071857;28;20058;-76
2023/07/21 06:30:56;;;;;;;6.10;1.70;;;;;;;;;;5071826;28;20059;-77
2023/07/21 06:33:22;;;;;;;7.28;1.70;;;;;;;;;;5071761;28;20029;-75
2023/07/21 06:35:50;;;;;;;6.65;1.55;;;;;;;;;;5071877;28;20506;-74
2023/07/21 06:38:16;;;;;;;6.32;1.70;;;;;;;;;;5072471;28;20046;-73
2023/07/21 06:40:42;;;;;;;5.72;1.60;;;;;;;;;;5071603;28;20550;-73
2023/07/21 06:43:08;;;;;;;7.45;1.85;;;;;;;;;;5071411;28;20021;-74
2023/07/21 06:45:39;;;;;;;6.55;1.60;;;;;;;;;;5073105;28;20021;-74
2023/07/21 06:48:06;;;;;;;5.78;1.40;;;;;;;;;;5076839;28;20109;-75
2023/07/21 06:50:32;;;;;;;5.20;1.73;;;;;;;;;;5073102;28;20016;-74
2023/07/21 06:52:58;;;;;;;5.38;1.40;;;;;;;;;;5071067;28;20024;-75
2023/07/21 06:55:24;;;;;;;10.98;1.60;;;;;;;;;;5071637;28;20536;-74
2023/07/21 06:57:50;;;;;;;11.32;3.83;;;;;;;;;;5071457;28;20028;-74
2023/07/21 07:00:16;;;;;;;6.68;1.98;;;;;;;;;;5071295;28;20024;-74
2023/07/21 07:02:49;;;;;;;10.35;2.35;;;;;;;;;;5071105;28;20440;-74
2023/07/21 07:05:15;;;;;;;11.43;3.97;;;;;;;;;;5071505;28;20035;-73
2023/07/21 07:07:41;;;;;;;6.18;1.60;;;;;;;;;;5071478;28;20021;-75
2023/07/21 07:10:07;;;;;;;10.63;3.97;;;;;;;;;;5071690;28;20536;-75
2023/07/21 07:12:33;;;;;;;22.55;7.93;;;;;;;;;;5071907;28;20060;-75
2023/07/21 07:14:59;;;;;;;63.15;23.55;;;;;;;;;;5071493;28;20059;-75
2023/07/21 07:17:25;;;;;;;29.83;9.98;;;;;;;;;;5071720;28;20382;-75
2023/07/21 07:19:51;;;;;;;15.73;4.78;;;;;;;;;;5073956;28;20029;-77
2023/07/21 07:22:17;;;;;;;7.78;1.35;;;;;;;;;;5074069;28;20128;-76
2023/07/21 07:24:43;;;;;;;5.55;1.73;;;;;;;;;;5083774;28;20032;-76
2023/07/21 07:27:09;;;;;;;5.25;1.52;;;;;;;;;;5085032;28;20159;-76
2023/07/21 07:29:36;;;;;;;10.18;3.33;;;;;;;;;;5082186;28;20020;-76
2023/07/21 07:32:02;;;;;;;10.20;3.20;;;;;;;;;;5080130;28;20103;-75
2023/07/21 07:34:28;;;;;;;6.55;1.90;;;;;;;;;;5083507;28;20028;-75
2023/07/21 07:36:54;;;;;;;6.28;2.35;;;;;;;;;;5082576;28;20040;-75
2023/07/21 07:39:20;;;;;;;10.10;4.03;;;;;;;;;;5080116;28;20016;-74
2023/07/21 07:41:49;;;;;;;6.60;2.17;;;;;;;;;;5079525;28;20534;-75
2023/07/21 07:44:15;;;;;;;7.47;2.03;;;;;;;;;;5079922;28;20029;-75
2023/07/21 07:46:41;;;;;;;7.72;2.33;;;;;;;;;;5080995;28;20089;-75
2023/07/21 07:49:08;;;;;;;8.80;2.72;;;;;;;;;;5080037;28;20051;-75
2023/07/21 07:51:38;;;;;;;7.00;1.90;;;;;;;;;;5078326;28;20028;-74
2023/07/21 07:54:05;;;;;;;12.68;2.90;;;;;;;;;;5075068;28;20165;-75
2023/07/21 07:56:31;;;;;;;4.78;1.63;;;;;;;;;;5075527;28;20388;-73
2023/07/21 07:58:57;;;;;;;6.75;2.15;;;;;;;;;;5075113;28;20025;-73
2023/07/21 08:01:23;;;;;;;7.65;2.38;;;;;;;;;;5075634;28;20035;-75
2023/07/21 08:03:50;;;;;;;5.28;2.25;;;;;;;;;;5077537;28;20060;-74
2023/07/21 08:06:17;;;;;;;5.90;1.83;;;;;;;;;;5078369;28;20028;-74
2023/07/21 08:08:43;;;;;;;5.97;2.28;;;;;;;;;;5076484;28;20046;-74
2023/07/21 08:11:09;;;;;;;4.45;1.75;;;;;;;;;;5073994;28;20035;-74
2023/07/21 08:13:35;;;;;;;5.35;1.58;;;;;;;;;;5072629;28;20097;-74
2023/07/21 08:16:03;;;;;;;5.82;1.92;;;;;;;;;;5073478;28;20489;-75
2023/07/21 08:18:29;;;;;;;8.95;1.73;;;;;;;;;;5073114;28;20119;-74
2023/07/21 08:20:55;;;;;;;3.33;1.50;;;;;;;;;;5073017;28;20182;-73
2023/07/21 08:23:21;;;;;;;7.65;2.17;;;;;;;;;;5072212;28;20013;-74
2023/07/21 08:25:47;;;;;;;8.85;2.10;;;;;;;;;;5072469;28;20021;-75
2023/07/21 08:28:13;;;;;;;6.05;2.03;;;;;;;;;;5072501;28;20498;-74
2023/07/21 08:30:39;;;;;;;5.63;1.80;;;;;;;;;;5072566;28;20111;-73
2023/07/21 08:33:05;;;;;;;7.90;1.80;;;;;;;;;;5072876;28;20025;-74
2023/07/21 08:35:32;;;;;;;5.97;2.05;;;;;;;;;;5073120;28;20024;-74
2023/07/21 08:37:58;;;;;;;4.93;1.55;;;;;;;;;;5072744;28;20024;-74
2023/07/21 08:40:24;;;;;;;5.00;1.70;;;;;;;;;;5072940;28;20028;-74
2023/07/21 08:42:50;;;;;;;8.18;1.98;;;;;;;;;;5072495;28;20225;-76
2023/07/21 08:45:17;;;;;;;6.63;1.60;;;;;;;;;;5072904;28;20025;-74
2023/07/21 08:47:42;;;;;;;6.18;1.50;;;;;;;;;;5072544;28;20021;-73
2023/07/21 08:50:09;;;;;;;4.30;1.60;;;;;;;;;;5072172;28;20488;-74
2023/07/21 08:52:35;;;;;;;6.32;2.67;;;;;;;;;;5072141;28;20050;-74
2023/07/21 08:55:01;;;;;;;5.88;1.90;;;;;;;;;;5072419;28;20554;-74
2023/07/21 08:57:28;;;;;;;11.18;2.40;;;;;;;;;;5072286;28;20078;-75
2023/07/21 08:59:55;;;;;;;4.80;1.50;;;;;;;;;;5072543;28;20039;-74
2023/07/21 09:02:40;;;;;;;6.78;1.98;;;;;;;;;;5072081;28;20025;-74
2023/07/21 09:05:07;;;;;;;8.20;3.08;;;;;;;;;;5070348;28;20048;-74
2023/07/21 09:07:35;;;;;;;6.80;1.65;;;;;;;;;;5072439;28;20024;-73
2023/07/21 09:10:01;;;;;;;4.18;1.58;;;;;;;;;;5072206;28;20031;-74
2023/07/21 09:12:35;;;;;;;6.65;1.60;;;;;;;;;;5033241;28;1114847;-75
2023/07/21 09:15:07;;;;;;;5.57;1.67;;;;;;;;;;5072963;28;20036;-73
2023/07/21 09:17:34;;;;;;;8.63;1.88;;;;;;;;;;5073197;28;20509;-74
2023/07/21 09:20:00;;;;;;;5.97;1.70;;;;;;;;;;5073467;28;20103;-75
2023/07/21 09:22:26;;;;;;;6.45;1.67;;;;;;;;;;5072642;28;20095;-76
2023/07/21 09:24:52;;;;;;;4.82;2.30;;;;;;;;;;5073792;28;20024;-73
2023/07/21 09:27:18;;;;;;;2.55;1.30;;;;;;;;;;5072947;28;20095;-73
2023/07/21 09:29:45;;;;;;;5.85;2.42;;;;;;;;;;5072893;28;20471;-73
2023/07/21 09:32:15;;;;;;;10.50;5.90;;;;;;;;;;5073478;28;20033;-75
2023/07/21 09:34:54;;;;;;;9.18;2.08;;;;;;;;;;5072927;28;20033;-74
2023/07/21 09:37:21;;;;;;;5.05;1.60;;;;;;;;;;5075446;28;20020;-75
2023/07/21 09:39:52;;;;;;;7.50;1.67;;;;;;;;;;5073084;28;20031;-73
2023/07/21 09:42:18;;;;;;;5.20;2.05;;;;;;;;;;5071485;28;20025;-74
2023/07/21 09:44:44;;;;;;;5.60;1.83;;;;;;;;;;5072791;28;20025;-74
2023/07/21 09:47:10;;;;;;;5.20;2.92;;;;;;;;;;5072589;28;20028;-74
2023/07/21 09:49:36;;;;;;;8.82;1.73;;;;;;;;;;5071998;28;20031;-74
2023/07/21 09:52:02;;;;;;;4.15;1.50;;;;;;;;;;5072912;28;20261;-75
2023/07/21 09:54:29;;;;;;;5.20;1.63;;;;;;;;;;5074863;28;20035;-75
2023/07/21 09:56:56;;;;;;;4.32;1.45;;;;;;;;;;5075811;28;20028;-75
2023/07/21 09:59:22;;;;;;;6.32;1.42;;;;;;;;;;5073971;28;20381;-75
2023/07/21 10:01:48;;;;;;;3.58;1.20;;;;;;;;;;5072582;28;20120;-75
2023/07/21 10:04:15;;;;;;;7.75;1.85;;;;;;;;;;5073787;28;20035;-75
2023/07/21 10:06:41;;;;;;;6.40;1.70;;;;;;;;;;5077635;28;20027;-75
2023/07/21 10:09:10;;;;;;;9.48;2.33;;;;;;;;;;5075769;28;20527;-78
2023/07/21 10:11:36;;;;;;;5.72;1.95;;;;;;;;;;5073597;28;20060;-74
2023/07/21 10:14:02;;;;;;;5.43;1.75;;;;;;;;;;5074604;28;20032;-74
2023/07/21 10:16:30;;;;;;;3.10;1.38;;;;;;;;;;5074925;28;20081;-73
2023/07/21 10:18:59;;;;;;;4.72;1.20;;;;;;;;;;5074991;28;20017;-76
2023/07/21 10:21:29;;;;;;;2.42;1.33;;;;;;;;;;5072077;28;20036;-73
2023/07/21 10:23:59;;;;;;;5.05;1.25;;;;;;;;;;5072181;28;20024;-75
2023/07/21 10:26:25;;;;;;;2.88;1.30;;;;;;;;;;5071994;28;20151;-74
2023/07/21 10:28:53;;;;;;;6.22;1.20;;;;;;;;;;5072288;28;20517;-74
2023/07/21 10:31:23;;;;;;;4.85;1.95;;;;;;;;;;5072549;28;20094;-75
2023/07/21 10:34:03;;;;;;;2.65;1.33;;;;;;;;;;5075100;28;20047;-73
2023/07/21 10:36:39;;;;;;;4.15;1.73;;;;;;;;;;5076422;28;20040;-74
2023/07/21 10:39:10;;;;;;;3.38;1.30;;;;;;;;;;5072345;28;20025;-75
2023/07/21 10:41:37;;;;;;;2.25;0.95;;;;;;;;;;5071766;28;20056;-73
2023/07/21 10:44:05;;;;;;;3.97;1.40;;;;;;;;;;5094017;28;20072;-74
2023/07/21 10:46:35;;;;;;;7.07;1.30;;;;;;;;;;5097363;28;20032;-74
2023/07/21 10:49:01;;;;;;;6.85;1.90;;;;;;;;;;5096201;28;20039;-77
2023/07/21 10:51:27;;;;;;;6.72;1.23;;;;;;;;;;5095361;28;20016;-75
2023/07/21 10:53:53;;;;;;;4.97;1.10;;;;;;;;;;5088312;28;20062;-75
2023/07/21 10:56:19;;;;;;;8.38;1.38;;;;;;;;;;5082541;28;20028;-75
2023/07/21 10:58:45;;;;;;;2.78;1.10;;;;;;;;;;5076898;28;20024;-77
2023/07/21 11:01:11;;;;;;;3.33;1.33;;;;;;;;;;5072219;28;20494;-75
2023/07/21 11:03:41;;;;;;;5.50;1.10;;;;;;;;;;5071515;28;20091;-75
2023/07/21 11:06:07;;;;;;;1.77;1.10;;;;;;;;;;5071660;28;20021;-76
2023/07/21 11:08:33;;;;;;;7.18;1.60;;;;;;;;;;5071486;28;20020;-76
2023/07/21 11:10:59;;;;;;;5.50;1.30;;;;;;;;;;5071622;28;20043;-75
2023/07/21 11:13:27;;;;;;;4.00;1.20;;;;;;;;;;5069992;28;20082;-75
2023/07/21 11:15:56;;;;;;;1.92;1.23;;;;;;;;;;5073135;28;20029;-76
2023/07/21 11:18:23;;;;;;;5.00;1.33;;;;;;;;;;5072902;28;20029;-75
2023/07/21 11:20:52;;;;;;;4.45;1.27;;;;;;;;;;5071849;28;20035;-74
2023/07/21 11:23:22;;;;;;;8.90;1.83;;;;;;;;;;5071063;28;20078;-74
2023/07/21 11:26:07;;;;;;;4.05;1.30;;;;;;;;;;5070581;28;20074;-75
2023/07/21 11:28:34;;;;;;;1.85;1.08;;;;;;;;;;5071317;28;20404;-73
2023/07/21 11:31:00;;;;;;;6.18;1.65;;;;;;;;;;5071384;28;20039;-75
2023/07/21 11:33:42;;;;;;;2.15;1.08;;;;;;;;;;5071419;28;20024;-76
2023/07/21 11:36:28;;;;;;;6.53;2.53;;;;;;;;;;5071654;28;20494;-74
2023/07/21 11:39:06;;;;;;;4.95;1.42;;;;;;;;;;5071737;28;20555;-76
2023/07/21 11:41:33;;;;;;;4.43;1.20;;;;;;;;;;5071610;28;20033;-75
2023/07/21 11:43:59;;;;;;;7.90;1.40;;;;;;;;;;5071996;28;20020;-75
2023/07/21 11:46:25;;;;;;;3.38;1.10;;;;;;;;;;5070429;28;20111;-75
2023/07/21 11:48:52;;;;;;;3.63;1.33;;;;;;;;;;5071397;28;20560;-73
2023/07/21 11:51:18;;;;;;;6.03;1.98;;;;;;;;;;5071489;28;20059;-74
2023/07/21 11:53:45;;;;;;;4.05;1.73;;;;;;;;;;5070968;28;20111;-74
2023/07/21 11:56:11;;;;;;;6.97;1.80;;;;;;;;;;5071647;28;20025;-74
2023/07/21 11:58:37;;;;;;;3.25;1.33;;;;;;;;;;5071540;28;20016;-74
2023/07/21 12:01:07;;;;;;;3.92;1.45;;;;;;;;;;5077202;28;20103;-74
2023/07/21 12:03:35;;;;;;;6.60;1.60;;;;;;;;;;5070940;28;20024;-73
2023/07/21 12:06:01;;;;;;;4.70;2.65;;;;;;;;;;5073266;28;20021;-74
2023/07/21 12:08:29;;;;;;;6.75;1.40;;;;;;;;;;5073461;28;20044;-75
2023/07/21 12:10:55;;;;;;;3.45;1.65;;;;;;;;;;5074850;28;20382;-75
2023/07/21 12:13:21;;;;;;;4.05;1.45;;;;;;;;;;5075045;28;20434;-75
2023/07/21 12:15:47;;;;;;;4.63;1.33;;;;;;;;;;5075345;28;20067;-75
2023/07/21 12:18:13;;;;;;;4.25;1.40;;;;;;;;;;5075023;28;20032;-74
2023/07/21 12:20:40;;;;;;;7.07;2.80;;;;;;;;;;5075614;28;20031;-75
2023/07/21 12:23:06;;;;;;;4.70;1.58;;;;;;;;;;5074872;28;20025;-75
2023/07/21 12:25:33;;;;;;;7.45;1.77;;;;;;;;;;5073362;28;20028;-75
2023/07/21 12:28:00;;;;;;;4.60;1.60;;;;;;;;;;5074572;28;20027;-75
2023/07/21 12:30:27;;;;;;;4.80;1.75;;;;;;;;;;5074628;28;20028;-79
2023/07/21 12:32:53;;;;;;;5.00;1.85;;;;;;;;;;5075140;28;20024;-75
2023/07/21 12:35:19;;;;;;;6.28;1.60;;;;;;;;;;5075470;28;20370;-75
2023/07/21 12:37:45;;;;;;;4.65;1.38;;;;;;;;;;5075541;28;20051;-76
2023/07/21 12:40:12;;;;;;;8.55;1.80;;;;;;;;;;5074459;28;20440;-75
2023/07/21 12:42:38;;;;;;;13.65;9.57;;;;;;;;;;5073398;28;20051;-75
2023/07/21 12:45:04;;;;;;;7.22;4.10;;;;;;;;;;5074414;28;20029;-75
2023/07/21 12:47:30;;;;;;;5.60;1.90;;;;;;;;;;5074122;28;20020;-74
2023/07/21 12:49:56;;;;;;;6.80;2.40;;;;;;;;;;5074060;28;20104;-75
2023/07/21 12:52:22;;;;;;;10.95;5.00;;;;;;;;;;5073827;28;20070;-75
2023/07/21 12:54:48;;;;;;;3.75;2.05;;;;;;;;;;5074089;28;20505;-74
2023/07/21 12:57:14;;;;;;;6.97;2.40;;;;;;;;;;5074581;28;20123;-74
2023/07/21 12:59:41;;;;;;;5.95;3.53;;;;;;;;;;5076061;28;20483;-74
2023/07/21 13:02:07;;;;;;;5.95;2.05;;;;;;;;;;5073345;28;20029;-74
2023/07/21 13:04:33;;;;;;;2.97;1.30;;;;;;;;;;5073723;28;20029;-74
2023/07/21 13:07:00;;;;;;;3.85;1.67;;;;;;;;;;5075383;28;20036;-75
2023/07/21 13:09:26;;;;;;;2.88;1.77;;;;;;;;;;5081143;28;20021;-75
2023/07/21 13:11:53;;;;;;;9.38;2.28;;;;;;;;;;5064227;28;20108;-75
2023/07/21 13:14:19;;;;;;;1.80;1.20;;;;;;;;;;5073765;28;20041;-74
2023/07/21 13:16:45;;;;;;;2.92;1.20;;;;;;;;;;5074784;28;20038;-74
2023/07/21 13:19:12;;;;;;;3.47;1.35;;;;;;;;;;5073343;28;20021;-76
2023/07/21 13:21:38;;;;;;;1.83;1.08;;;;;;;;;;5072760;28;20104;-75
2023/07/21 13:24:04;;;;;;;2.20;1.42;;;;;;;;;;5071753;28;20028;-75
2023/07/21 13:26:31;;;;;;;5.05;1.25;;;;;;;;;;5079776;28;20058;-76
2023/07/21 13:28:57;;;;;;;4.93;1.38;;;;;;;;;;5073770;28;20111;-76
2023/07/21 13:31:26;;;;;;;5.53;2.00;;;;;;;;;;5073255;28;20031;-75
2023/07/21 13:33:52;;;;;;;4.53;1.58;;;;;;;;;;5066390;28;20024;-75
2023/07/21 13:36:18;;;;;;;3.42;1.52;;;;;;;;;;5072828;28;20070;-73
2023/07/21 13:38:45;;;;;;;2.97;1.50;;;;;;;;;;5072315;28;20437;-75
2023/07/21 13:41:11;;;;;;;3.75;1.30;;;;;;;;;;5072552;28;20035;-74
2023/07/21 13:43:37;;;;;;;3.88;1.40;;;;;;;;;;5073944;28;20021;-75
2023/07/21 13:46:03;;;;;;;4.43;1.42;;;;;;;;;;5072915;28;20410;-75
2023/07/21 13:48:29;;;;;;;2.97;1.42;;;;;;;;;;5072621;28;20032;-74
2023/07/21 13:50:55;;;;;;;3.58;1.60;;;;;;;;;;5074427;28;20093;-76
2023/07/21 13:53:21;;;;;;;2.38;1.30;;;;;;;;;;5079583;28;20024;-75
2023/07/21 13:55:47;;;;;;;2.70;1.30;;;;;;;;;;5074781;28;20054;-76
2023/07/21 13:58:13;;;;;;;2.40;1.30;;;;;;;;;;5073562;28;20025;-74
2023/07/21 14:00:39;;;;;;;5.07;1.40;;;;;;;;;;5072275;28;20024;-75
2023/07/21 14:03:05;;;;;;;1.80;1.15;;;;;;;;;;5071992;28;20020;-75
2023/07/21 14:05:32;;;;;;;1.80;1.08;;;;;;;;;;5072451;28;20429;-74
2023/07/21 14:07:58;;;;;;;1.70;1.20;;;;;;;;;;5072472;28;20020;-76
2023/07/21 14:10:24;;;;;;;4.63;1.60;;;;;;;;;;5073307;28;20383;-77
2023/07/21 14:12:51;;;;;;;2.17;1.50;;;;;;;;;;5073742;28;20033;-77
2023/07/21 14:15:17;;;;;;;2.58;1.48;;;;;;;;;;5073058;28;20371;-75
2023/07/21 14:17:43;;;;;;;3.67;1.50;;;;;;;;;;5075394;28;20370;-76
2023/07/21 14:20:09;;;;;;;6.30;1.20;;;;;;;;;;5073530;28;20035;-75
2023/07/21 14:22:36;;;;;;;2.78;1.40;;;;;;;;;;5074346;28;20028;-78
2023/07/21 14:25:02;;;;;;;4.78;1.58;;;;;;;;;;5074259;28;20029;-75
2023/07/21 14:27:28;;;;;;;2.40;1.40;;;;;;;;;;5070549;28;20025;-75
2023/07/21 14:29:54;;;;;;;1.92;1.48;;;;;;;;;;5071911;28;20024;-75
2023/07/21 14:32:20;;;;;;;2.80;1.80;;;;;;;;;;5071407;28;20425;-74
2023/07/21 14:34:46;;;;;;;2.92;1.30;;;;;;;;;;5071882;28;20028;-74
2023/07/21 14:37:12;;;;;;;4.20;1.40;;;;;;;;;;5072937;28;20029;-78
2023/07/21 14:39:38;;;;;;;3.30;1.60;;;;;;;;;;5072072;28;20025;-74
2023/07/21 14:42:05;;;;;;;2.40;1.27;;;;;;;;;;5072556;28;20035;-75
2023/07/21 14:44:36;;;;;;;2.72;1.58;;;;;;;;;;5071714;28;20069;-76